Cridersville, Ohio
Current Conditions -  °F | °C
As of 12:53 PM on Sunday 21 Dec 2014 (Local Time) from KAOH Reporting Station
Few Clouds Few Clouds  
Wind Chill: 31°   Ceiling: Unl
Heat Index: 37°   Visibility: 8mi
Dew Point: 24°   Wind: 8mph
Humidity: 59%   Direction: 120°ESE
Pressure: 30.23"   Gusts: NA
Location:  40.6673°N, 84.1324°W
Report Text: KAOH 211753Z AUTO 12007KT 8SM FEW050 03/M04 A3023 RMK AO2 SLP247 T00281044 10028 21050 58023
Loading
Personal Weather Stations






























Interactive Weather Map New forecast layout! Learn more

10-Day Weather Forecast

Advertisements
Track Severe Weather on mobile